Time;durP1;ratioP1;P1;durP2;ratioP2;P2;SDS_P1;SDS_P2;PMS_P1;PMS_P2;Temp;Humidity;BMP_temperature;BMP_pressure;BME280_temperature;BME280_humidity;BME280_pressure;Samples;Min_cycle;Max_cycle;Signal;HPM_P1;HPM_P2
2022/01/04 00:06:36;;;;;;;0.98;0.22;;;8.10;99.90;;;;;;6734611;88;21068;-75
2022/01/04 00:16:37;;;;;;;0.57;0.30;;;8.00;99.90;;;;;;6733990;88;20243;-76
2022/01/04 00:26:37;;;;;;;0.98;0.32;;;7.90;99.90;;;;;;6735295;88;20795;-75
2022/01/04 00:36:38;;;;;;;0.93;0.37;;;8.00;99.90;;;;;;6736497;88;20327;-75
2022/01/04 00:46:38;;;;;;;1.58;0.40;;;7.90;99.90;;;;;;6735751;88;20192;-75
2022/01/04 00:56:39;;;;;;;1.80;0.50;;;8.00;99.90;;;;;;6735671;88;20243;-75
2022/01/04 01:06:40;;;;;;;1.55;0.45;;;7.90;99.90;;;;;;6717695;88;20201;-75
2022/01/04 01:16:41;;;;;;;1.40;0.37;;;7.90;99.90;;;;;;6718488;88;20218;-74
2022/01/04 01:26:41;;;;;;;2.45;0.52;;;7.90;99.90;;;;;;6718993;88;20556;-75
2022/01/04 01:36:42;;;;;;;1.92;0.40;;;7.80;99.90;;;;;;6718002;88;20193;-76
2022/01/04 01:46:42;;;;;;;1.50;0.47;;;7.80;99.90;;;;;;6718849;88;20238;-77
2022/01/04 01:56:43;;;;;;;2.80;0.55;;;7.90;99.90;;;;;;6715122;88;20284;-75
2022/01/04 02:06:43;;;;;;;1.62;0.50;;;7.90;99.90;;;;;;6715406;88;20212;-75
2022/01/04 02:16:44;;;;;;;2.08;0.55;;;7.80;99.90;;;;;;6735358;88;20181;-75
2022/01/04 02:26:45;;;;;;;2.70;0.70;;;7.80;99.90;;;;;;6733875;88;20325;-76
2022/01/04 02:36:45;;;;;;;1.52;0.68;;;7.90;99.90;;;;;;6742583;88;20271;-74
2022/01/04 02:46:46;;;;;;;1.85;0.70;;;7.70;99.90;;;;;;6743540;88;20643;-76
2022/01/04 02:56:47;;;;;;;2.62;0.80;;;7.60;99.90;;;;;;6734198;88;20668;-75
2022/01/04 03:06:48;;;;;;;3.20;0.90;;;7.60;99.90;;;;;;6741725;88;20192;-74
2022/01/04 03:16:49;;;;;;;4.15;0.75;;;7.70;99.90;;;;;;6751932;88;20307;-76
2022/01/04 03:26:49;;;;;;;2.63;0.70;;;7.70;99.90;;;;;;6741385;88;20192;-76
2022/01/04 03:36:50;;;;;;;1.58;0.73;;;7.50;99.90;;;;;;6733569;88;20517;-75
2022/01/04 03:46:53;;;;;;;3.30;0.95;;;7.50;99.90;;;;;;6733178;88;20956;-75
2022/01/04 03:56:53;;;;;;;4.18;0.88;;;7.60;99.90;;;;;;6733302;88;20232;-75
2022/01/04 04:06:54;;;;;;;1.17;0.55;;;7.50;99.90;;;;;;6733942;88;20218;-75
2022/01/04 04:16:55;;;;;;;1.42;0.50;;;7.60;99.90;;;;;;6731869;88;20241;-75
2022/01/04 04:26:55;;;;;;;1.98;0.62;;;7.50;99.90;;;;;;6731841;88;20204;-76
2022/01/04 04:36:56;;;;;;;1.67;0.70;;;7.40;99.90;;;;;;6730644;88;22337;-75
2022/01/04 04:46:57;;;;;;;2.83;0.90;;;7.50;99.90;;;;;;6732686;88;20516;-75
2022/01/04 04:56:57;;;;;;;2.55;1.00;;;7.40;99.90;;;;;;6733589;88;20244;-76
2022/01/04 05:06:58;;;;;;;2.40;1.10;;;7.40;99.90;;;;;;6729246;88;20209;-75
2022/01/04 05:16:59;;;;;;;2.45;0.60;;;7.30;99.90;;;;;;6735834;88;20233;-75
2022/01/04 05:26:59;;;;;;;2.28;0.70;;;7.20;99.90;;;;;;6735299;88;20903;-75
2022/01/04 05:37:01;;;;;;;3.42;0.52;;;7.30;99.90;;;;;;6730522;88;20302;-75
2022/01/04 05:47:02;;;;;;;1.55;0.40;;;7.10;99.90;;;;;;6741746;88;20777;-75
2022/01/04 05:57:03;;;;;;;1.73;0.50;;;7.10;99.90;;;;;;6730471;88;20297;-75
2022/01/04 06:07:03;;;;;;;2.95;0.60;;;7.00;99.90;;;;;;6734114;88;20234;-74
2022/01/04 06:17:11;;;;;;;1.60;0.60;;;7.20;99.90;;;;;;6734790;88;20247;-75
2022/01/04 06:27:11;;;;;;;2.65;0.50;;;7.20;99.90;;;;;;6735207;88;20289;-75
2022/01/04 06:37:13;;;;;;;1.60;0.50;;;7.20;99.90;;;;;;6737255;88;20837;-75
2022/01/04 06:47:13;;;;;;;2.08;0.77;;;7.20;99.90;;;;;;6737822;88;20204;-75
2022/01/04 06:57:14;;;;;;;3.62;0.98;;;7.10;99.90;;;;;;6735944;88;20871;-75
2022/01/04 07:07:14;;;;;;;3.55;1.23;;;7.10;99.90;;;;;;6738354;88;20648;-76
2022/01/04 07:17:15;;;;;;;6.10;2.85;;;7.10;99.90;;;;;;6734035;88;20324;-75
2022/01/04 07:27:16;;;;;;;7.28;4.12;;;7.20;99.90;;;;;;6735021;88;20180;-74
2022/01/04 07:37:16;;;;;;;8.57;4.25;;;7.20;99.90;;;;;;6737070;88;20210;-75
2022/01/04 07:47:17;;;;;;;8.50;3.95;;;7.20;99.90;;;;;;6732189;88;20273;-74
2022/01/04 07:57:58;;;;;;;10.60;4.70;;;7.10;99.90;;;;;;6741100;77;21776;-78
2022/01/04 08:07:59;;;;;;;8.77;4.90;;;7.20;99.90;;;;;;6741303;88;20503;-79
2022/01/04 08:18:00;;;;;;;10.10;4.87;;;7.10;99.90;;;;;;6739364;88;20258;-77
2022/01/04 08:28:01;;;;;;;7.82;4.30;;;7.10;99.90;;;;;;6738660;88;20181;-77
2022/01/04 08:38:01;;;;;;;6.45;3.28;;;7.10;99.90;;;;;;6739408;88;20210;-78
2022/01/04 08:48:04;;;;;;;5.93;2.85;;;7.20;99.90;;;;;;6741016;88;20404;-77
2022/01/04 08:58:06;;;;;;;5.82;2.97;;;7.30;99.90;;;;;;6736951;88;20183;-78
2022/01/04 09:08:06;;;;;;;6.50;3.42;;;7.30;99.90;;;;;;6706833;88;20200;-77
2022/01/04 09:28:29;;;;;;;3.92;1.60;;;7.30;99.90;;;;;;6711540;88;20232;-78
2022/01/04 09:38:30;;;;;;;2.65;0.75;;;7.30;99.90;;;;;;6734745;88;20311;-77
2022/01/04 09:48:31;;;;;;;2.53;0.80;;;7.30;99.90;;;;;;6705601;88;20187;-76
2022/01/04 09:58:32;;;;;;;1.65;0.73;;;7.20;99.90;;;;;;6702844;88;20227;-76
2022/01/04 10:08:33;;;;;;;5.43;0.90;;;7.10;99.90;;;;;;6706833;88;20213;-79
2022/01/04 10:18:33;;;;;;;4.82;1.00;;;7.10;99.90;;;;;;6706034;88;20170;-78
2022/01/04 10:28:40;;;;;;;3.00;1.17;;;7.10;99.90;;;;;;6701357;88;20784;-77
2022/01/04 10:38:46;;;;;;;4.68;1.15;;;7.00;99.90;;;;;;6704638;88;20654;-76
2022/01/04 10:48:49;;;;;;;3.53;1.02;;;7.10;99.90;;;;;;6703747;88;20330;-75
2022/01/04 10:58:52;;;;;;;3.37;1.00;;;7.30;99.90;;;;;;6720169;88;20315;-76
2022/01/04 11:08:53;;;;;;;2.95;1.25;;;7.20;99.90;;;;;;6736588;88;20249;-77
2022/01/04 11:18:55;;;;;;;4.40;1.20;;;7.30;99.90;;;;;;6736789;88;20229;-77
2022/01/04 11:28:57;;;;;;;2.90;0.90;;;7.40;99.90;;;;;;6736482;88;20928;-77
2022/01/04 11:38:58;;;;;;;3.17;0.77;;;7.60;99.90;;;;;;6736869;88;20206;-75
2022/01/04 11:49:13;;;;;;;3.25;0.80;;;7.40;99.90;;;;;;6739057;88;20301;-77
2022/01/04 11:59:19;;;;;;;4.18;0.80;;;7.50;99.90;;;;;;6718333;88;20215;-75
2022/01/04 12:09:29;;;;;;;2.72;0.70;;;7.40;99.90;;;;;;6716804;88;20608;-76
2022/01/04 12:19:50;;;;;;;3.33;0.90;;;7.40;99.90;;;;;;6721214;88;20222;-74
2022/01/04 12:30:26;;;;;;;3.03;0.70;;;7.50;99.90;;;;;;6718732;88;20200;-76
2022/01/04 12:40:27;;;;;;;2.78;0.93;;;7.50;99.90;;;;;;6705186;88;20187;-76
2022/01/04 12:50:27;;;;;;;3.45;0.80;;;7.60;99.90;;;;;;6704226;88;20682;-78
2022/01/04 13:00:28;;;;;;;2.60;0.93;;;7.60;99.90;;;;;;6704029;88;20209;-76
2022/01/04 13:10:28;;;;;;;6.12;1.00;;;7.60;99.90;;;;;;6721125;88;20188;-75
2022/01/04 13:20:33;;;;;;;2.37;0.80;;;7.70;99.90;;;;;;6721254;88;20244;-76
2022/01/04 13:30:41;;;;;;;2.85;0.68;;;7.80;99.90;;;;;;6720403;88;20688;-74
2022/01/04 13:40:44;;;;;;;3.00;0.70;;;8.00;99.90;;;;;;6721073;88;20201;-75
2022/01/04 13:50:46;;;;;;;4.00;0.60;;;8.00;99.90;;;;;;6720412;88;20218;-75
2022/01/04 14:00:47;;;;;;;3.05;0.70;;;8.10;99.90;;;;;;6720323;88;20185;-76
2022/01/04 14:10:50;;;;;;;2.72;0.90;;;8.20;99.90;;;;;;6719712;88;20223;-76
2022/01/04 14:20:57;;;;;;;2.95;0.90;;;8.40;99.90;;;;;;6719033;88;20930;-76
2022/01/04 14:30:57;;;;;;;4.87;1.05;;;8.30;99.90;;;;;;6719257;88;20189;-76
2022/01/04 14:40:58;;;;;;;4.55;1.15;;;8.10;99.90;;;;;;6719131;88;20331;-77
2022/01/04 14:50:59;;;;;;;5.55;1.27;;;8.10;99.90;;;;;;6719505;88;20230;-76
2022/01/04 15:00:59;;;;;;;2.60;1.37;;;8.40;99.90;;;;;;6719206;88;20290;-74
2022/01/04 15:11:00;;;;;;;5.87;1.58;;;8.40;99.90;;;;;;6719156;88;20249;-76
2022/01/04 15:21:00;;;;;;;2.73;1.60;;;8.30;99.90;;;;;;6719638;88;20207;-75
2022/01/04 15:31:02;;;;;;;5.53;1.70;;;8.40;99.90;;;;;;6718550;88;20498;-74
2022/01/04 15:41:02;;;;;;;6.53;1.30;;;8.20;99.90;;;;;;6719410;88;20363;-75
2022/01/04 15:51:03;;;;;;;3.50;1.30;;;8.10;99.90;;;;;;6718875;88;20228;-75
2022/01/04 16:01:05;;;;;;;5.00;1.30;;;7.90;99.90;;;;;;6718531;88;20210;-75
2022/01/04 16:11:05;;;;;;;2.50;1.20;;;7.90;99.90;;;;;;6717821;88;20252;-76
2022/01/04 16:21:36;;;;;;;4.30;1.45;;;7.80;99.90;;;;;;6719220;88;20325;-75
2022/01/04 16:31:37;;;;;;;3.67;1.20;;;7.80;99.90;;;;;;6719090;88;20233;-77
2022/01/04 16:41:38;;;;;;;4.62;1.60;;;7.80;99.90;;;;;;6718520;88;20702;-77
2022/01/04 16:51:40;;;;;;;2.58;0.70;;;7.70;99.90;;;;;;6719341;88;20228;-76
2022/01/04 17:01:44;;;;;;;1.30;0.50;;;7.40;99.90;;;;;;6720225;88;20213;-75
2022/01/04 17:11:52;;;;;;;1.45;0.62;;;7.30;99.90;;;;;;6733312;77;20686;-75
2022/01/04 17:21:53;;;;;;;2.70;0.75;;;7.10;99.90;;;;;;6747361;88;20244;-75
2022/01/04 17:31:55;;;;;;;3.00;0.80;;;7.00;99.90;;;;;;6736875;88;20713;-74
2022/01/04 17:41:56;;;;;;;13.35;8.77;;;7.00;99.90;;;;;;6717853;88;20248;-75
2022/01/04 17:51:57;;;;;;;2.72;1.55;;;7.00;99.90;;;;;;6730635;88;20246;-73
2022/01/04 18:01:59;;;;;;;8.93;4.50;;;6.90;99.90;;;;;;6735353;88;20176;-76
2022/01/04 18:12:00;;;;;;;3.25;1.40;;;6.90;99.90;;;;;;6745470;88;20188;-77
2022/01/04 18:22:02;;;;;;;3.95;1.48;;;6.90;99.90;;;;;;6733331;88;20212;-76
2022/01/04 18:32:03;;;;;;;2.95;1.12;;;6.90;99.90;;;;;;6733861;88;20243;-78
2022/01/04 18:42:04;;;;;;;4.12;1.25;;;6.90;99.90;;;;;;6745953;88;20335;-76
2022/01/04 18:52:05;;;;;;;3.62;1.60;;;7.00;99.90;;;;;;6736357;88;20213;-73
2022/01/04 19:02:07;;;;;;;6.40;3.67;;;7.20;99.90;;;;;;6738041;88;20176;-74
2022/01/04 19:12:08;;;;;;;7.93;4.12;;;7.20;99.90;;;;;;6750204;88;20320;-75
2022/01/04 19:22:09;;;;;;;7.75;3.90;;;7.20;99.90;;;;;;6720418;88;20209;-75
2022/01/04 19:32:33;;;;;;;6.00;3.50;;;7.20;99.90;;;;;;6740632;88;20184;-74
2022/01/04 19:42:34;;;;;;;7.37;3.60;;;7.10;99.90;;;;;;6725265;88;20725;-75
2022/01/04 19:52:35;;;;;;;4.17;1.50;;;7.20;99.90;;;;;;6728094;88;20235;-73
2022/01/04 20:02:36;;;;;;;2.78;0.95;;;6.90;99.90;;;;;;6728626;88;21157;-73
2022/01/04 20:12:37;;;;;;;1.83;0.80;;;6.80;99.90;;;;;;6730162;88;20323;-74
2022/01/04 20:22:37;;;;;;;2.55;0.73;;;6.70;99.90;;;;;;6726989;88;20348;-75
2022/01/04 20:32:38;;;;;;;2.50;0.80;;;6.70;99.90;;;;;;6731030;88;20408;-74
2022/01/04 20:42:40;;;;;;;2.05;0.90;;;6.60;99.90;;;;;;6727340;88;20201;-73
2022/01/04 20:52:43;;;;;;;3.55;1.17;;;6.50;99.90;;;;;;6728675;88;20187;-73
2022/01/04 21:02:45;;;;;;;3.15;1.45;;;6.50;99.90;;;;;;6725589;88;20755;-74
2022/01/04 21:12:46;;;;;;;4.50;1.30;;;6.60;99.90;;;;;;6733206;88;20248;-74
2022/01/04 21:22:47;;;;;;;3.10;1.60;;;6.50;99.90;;;;;;6726641;88;20220;-75
2022/01/04 21:32:48;;;;;;;4.73;1.90;;;6.50;99.90;;;;;;6730733;88;20698;-75
2022/01/04 21:42:49;;;;;;;4.50;2.12;;;6.70;99.90;;;;;;6734999;88;21138;-75
2022/01/04 21:52:50;;;;;;;11.35;2.65;;;6.40;99.90;;;;;;6729299;88;20181;-73
2022/01/04 22:02:50;;;;;;;6.72;2.70;;;6.30;99.90;;;;;;6731668;88;20784;-73
2022/01/04 22:12:51;;;;;;;10.93;4.97;;;6.30;99.90;;;;;;6728235;88;20697;-73
2022/01/04 22:22:51;;;;;;;9.57;3.70;;;6.20;99.90;;;;;;6729074;88;20621;-73
2022/01/04 22:32:53;;;;;;;8.82;4.22;;;6.20;99.90;;;;;;6721867;88;20190;-73
2022/01/04 22:42:53;;;;;;;7.37;3.03;;;6.10;99.90;;;;;;6730519;88;20896;-73
2022/01/04 22:52:54;;;;;;;8.88;2.72;;;5.70;99.90;;;;;;6729815;88;20402;-72
2022/01/04 23:02:55;;;;;;;6.75;2.75;;;5.20;99.90;;;;;;6733574;88;20208;-72
2022/01/04 23:12:56;;;;;;;11.48;1.98;;;5.10;99.90;;;;;;6732250;88;20180;-73
2022/01/04 23:22:56;;;;;;;5.17;1.00;;;4.70;99.90;;;;;;6724619;88;20212;-73
2022/01/04 23:32:57;;;;;;;7.20;1.00;;;4.50;99.90;;;;;;6730370;88;20518;-73
2022/01/04 23:42:57;;;;;;;7.28;1.25;;;4.40;99.90;;;;;;6722643;88;20246;-73
2022/01/04 23:52:58;;;;;;;11.30;2.20;;;4.20;99.90;;;;;;6725887;88;20181;-73
